Time;durP1;ratioP1;P1;durP2;ratioP2;P2;SDS_P1;SDS_P2;PMS_P1;PMS_P2;Temp;Humidity;BMP_temperature;BMP_pressure;BME280_temperature;BME280_humidity;BME280_pressure;Samples;Min_cycle;Max_cycle;Signal;HPM_P1;HPM_P2
2021/01/01 00:01:02;;;;;;;37.27;20.77;;;5.80;99.90;;;;;;4993859;28;20277;-79
2021/01/01 00:03:28;;;;;;;36.43;20.90;;;5.90;99.90;;;;;;4995304;28;20175;-78
2021/01/01 00:05:54;;;;;;;32.03;19.87;;;6.20;99.90;;;;;;4996392;28;20170;-79
2021/01/01 00:08:19;;;;;;;37.87;21.27;;;6.20;99.90;;;;;;4995155;28;20174;-79
2021/01/01 00:10:45;;;;;;;31.47;20.67;;;6.20;99.90;;;;;;4996379;28;20163;-79
2021/01/01 00:13:10;;;;;;;33.97;20.60;;;6.20;99.90;;;;;;4996291;28;20171;-79
2021/01/01 00:15:36;;;;;;;36.63;20.47;;;6.50;99.90;;;;;;4996324;28;20177;-79
2021/01/01 00:18:02;;;;;;;29.37;19.93;;;6.80;99.90;;;;;;4996255;28;20501;-79
2021/01/01 00:20:27;;;;;;;34.77;20.53;;;6.50;99.90;;;;;;4996145;28;20170;-79
2021/01/01 00:22:53;;;;;;;28.03;19.83;;;6.20;99.90;;;;;;4996096;28;20177;-79
2021/01/01 00:25:19;;;;;;;29.43;17.77;;;5.90;99.90;;;;;;4996142;28;20163;-80
2021/01/01 00:27:44;;;;;;;24.80;18.23;;;5.80;99.90;;;;;;4994784;28;20179;-79
2021/01/01 00:30:13;;;;;;;23.90;16.33;;;5.90;99.90;;;;;;4994763;28;20202;-80
2021/01/01 00:32:42;;;;;;;30.60;19.23;;;5.80;99.90;;;;;;4994675;28;20534;-80
2021/01/01 00:35:17;;;;;;;28.93;18.17;;;5.70;99.90;;;;;;4995949;28;20673;-80
2021/01/01 00:37:45;;;;;;;25.83;16.93;;;5.90;99.90;;;;;;4996384;28;20177;-80
2021/01/01 00:40:14;;;;;;;28.83;16.90;;;5.90;99.90;;;;;;4995838;28;20194;-80
2021/01/01 00:42:40;;;;;;;31.13;19.47;;;5.80;99.90;;;;;;4994580;28;20178;-80
2021/01/01 00:45:07;;;;;;;25.40;17.77;;;5.70;99.90;;;;;;4995653;28;20186;-79
2021/01/01 00:47:32;;;;;;;28.20;17.30;;;5.60;99.90;;;;;;4994493;28;20162;-79
2021/01/01 00:49:59;;;;;;;21.83;14.70;;;5.50;99.90;;;;;;4994403;28;20237;-79
2021/01/01 00:52:25;;;;;;;21.37;14.90;;;5.40;99.90;;;;;;4994260;28;20631;-79
2021/01/01 00:54:50;;;;;;;22.33;15.00;;;5.40;99.90;;;;;;4994358;28;20170;-79
2021/01/01 00:57:16;;;;;;;21.93;13.87;;;5.30;99.90;;;;;;4995455;28;20185;-79
2021/01/01 00:59:41;;;;;;;20.73;15.03;;;5.30;99.90;;;;;;4995311;28;20257;-79
2021/01/01 01:02:07;;;;;;;20.27;15.47;;;5.30;99.90;;;;;;4995126;28;20229;-79
2021/01/01 01:04:35;;;;;;;26.57;15.80;;;5.20;99.90;;;;;;4995272;28;20615;-78
2021/01/01 01:07:01;;;;;;;33.43;17.07;;;5.20;99.90;;;;;;4994061;28;20166;-79
2021/01/01 01:09:26;;;;;;;28.83;16.77;;;5.20;99.90;;;;;;4994047;28;20159;-79
2021/01/01 01:11:53;;;;;;;27.43;16.90;;;5.20;99.90;;;;;;4993854;28;20167;-80
2021/01/01 01:14:19;;;;;;;27.93;17.33;;;5.30;99.90;;;;;;4995238;28;20649;-79
2021/01/01 01:16:44;;;;;;;27.93;17.13;;;5.30;99.90;;;;;;4995124;28;20167;-80
2021/01/01 01:19:10;;;;;;;29.90;17.87;;;5.40;99.90;;;;;;4993907;28;20169;-80
2021/01/01 01:21:38;;;;;;;26.47;15.90;;;5.50;99.90;;;;;;4994866;28;20203;-80
2021/01/01 01:24:05;;;;;;;23.27;16.10;;;5.50;99.90;;;;;;4995494;28;20155;-80
2021/01/01 01:26:30;;;;;;;24.83;17.13;;;5.50;99.90;;;;;;4993686;28;20532;-80
2021/01/01 01:28:56;;;;;;;30.77;18.47;;;5.50;99.90;;;;;;4993682;28;20171;-80
2021/01/01 01:31:21;;;;;;;26.83;18.40;;;5.40;99.90;;;;;;4994819;28;20166;-79
2021/01/01 01:33:47;;;;;;;25.93;18.30;;;5.50;99.90;;;;;;4994872;28;20172;-79
2021/01/01 01:36:13;;;;;;;25.67;18.70;;;5.70;99.90;;;;;;4993622;28;20167;-79
2021/01/01 01:38:38;;;;;;;27.40;18.83;;;5.90;99.90;;;;;;4994727;28;20162;-79
2021/01/01 01:41:07;;;;;;;27.67;18.77;;;5.80;99.90;;;;;;4994673;28;20234;-79
2021/01/01 01:43:33;;;;;;;28.20;18.40;;;5.50;99.90;;;;;;4994599;28;20163;-79
2021/01/01 01:45:59;;;;;;;31.83;18.97;;;5.30;99.90;;;;;;4994600;28;20170;-79
2021/01/01 01:48:31;;;;;;;25.87;17.90;;;5.10;99.90;;;;;;4995069;28;20754;-78
2021/01/01 01:50:58;;;;;;;29.23;18.47;;;5.00;99.90;;;;;;4993196;28;20209;-79
2021/01/01 01:53:26;;;;;;;30.10;19.10;;;4.90;99.90;;;;;;4994542;28;20167;-79
2021/01/01 01:55:56;;;;;;;25.70;16.70;;;4.90;99.90;;;;;;4993245;28;20527;-79
2021/01/01 01:58:22;;;;;;;29.13;19.07;;;4.80;99.90;;;;;;4994477;28;20206;-79
2021/01/01 02:00:57;;;;;;;27.13;17.23;;;4.70;99.90;;;;;;4992804;28;20580;-79
2021/01/01 02:03:27;;;;;;;29.67;17.73;;;4.60;99.90;;;;;;4993172;28;20181;-80
2021/01/01 02:05:53;;;;;;;30.17;18.10;;;4.60;99.90;;;;;;4994868;28;20571;-79
2021/01/01 02:08:20;;;;;;;26.90;18.30;;;4.60;99.90;;;;;;4994198;28;20270;-79
2021/01/01 02:10:47;;;;;;;31.87;18.57;;;4.90;99.90;;;;;;4994805;28;20339;-80
2021/01/01 02:13:13;;;;;;;25.97;18.23;;;5.20;99.90;;;;;;4994288;28;20177;-79
2021/01/01 02:15:39;;;;;;;28.87;18.10;;;5.20;99.90;;;;;;4994188;28;20167;-79
2021/01/01 02:18:05;;;;;;;31.40;18.77;;;5.10;99.90;;;;;;4994778;28;20229;-79
2021/01/01 02:20:31;;;;;;;29.77;21.73;;;5.10;99.90;;;;;;4994084;28;20159;-79
2021/01/01 02:22:56;;;;;;;26.13;19.43;;;5.10;99.90;;;;;;4994139;28;20248;-79
2021/01/01 02:25:22;;;;;;;27.43;21.00;;;5.10;99.90;;;;;;4993630;28;20245;-79
2021/01/01 02:27:48;;;;;;;28.73;19.83;;;5.10;99.90;;;;;;4994033;28;20205;-79
2021/01/01 02:30:15;;;;;;;28.67;19.57;;;5.00;99.90;;;;;;4992797;28;20170;-79
2021/01/01 02:32:41;;;;;;;26.17;21.20;;;5.10;99.90;;;;;;4994019;28;20179;-78
2021/01/01 02:35:07;;;;;;;25.63;19.57;;;5.10;99.90;;;;;;4993971;28;20173;-79
2021/01/01 02:37:34;;;;;;;23.77;18.70;;;5.00;99.90;;;;;;4994063;28;20163;-79
2021/01/01 02:40:01;;;;;;;25.20;19.00;;;4.90;99.90;;;;;;4993990;28;20198;-79
2021/01/01 02:42:27;;;;;;;24.67;18.97;;;4.80;99.90;;;;;;4992448;28;20622;-79
2021/01/01 02:44:52;;;;;;;22.37;18.77;;;4.80;99.90;;;;;;4992787;28;20214;-79
2021/01/01 02:47:18;;;;;;;23.80;18.53;;;4.70;99.90;;;;;;4992690;28;20198;-79
2021/01/01 02:49:44;;;;;;;24.73;19.00;;;4.60;99.90;;;;;;4993921;28;20159;-80
2021/01/01 02:52:12;;;;;;;26.80;19.50;;;4.60;99.90;;;;;;4994446;28;20171;-80
2021/01/01 02:54:38;;;;;;;25.27;20.00;;;4.50;99.90;;;;;;4994123;28;20167;-80
2021/01/01 02:57:04;;;;;;;28.30;18.97;;;4.50;99.90;;;;;;4994162;28;20569;-79
2021/01/01 02:59:29;;;;;;;24.47;19.17;;;4.60;99.90;;;;;;4992403;28;20274;-79
2021/01/01 03:01:55;;;;;;;25.57;18.87;;;4.50;99.90;;;;;;4993521;28;20219;-79
2021/01/01 03:04:21;;;;;;;22.67;19.10;;;4.70;99.90;;;;;;4992569;28;20264;-80
2021/01/01 03:06:46;;;;;;;24.43;18.90;;;4.70;99.90;;;;;;4992529;28;20178;-80
2021/01/01 03:09:12;;;;;;;28.33;18.47;;;4.80;99.90;;;;;;4992494;28;20170;-80
2021/01/01 03:11:38;;;;;;;22.17;17.23;;;4.90;99.90;;;;;;4993679;28;20178;-80
2021/01/01 03:14:04;;;;;;;20.00;16.40;;;4.90;99.90;;;;;;4992413;28;20645;-80
2021/01/01 03:16:32;;;;;;;21.77;17.77;;;4.90;99.90;;;;;;4993736;28;20167;-80
2021/01/01 03:18:58;;;;;;;20.03;16.67;;;5.10;99.90;;;;;;4992457;28;20258;-81
2021/01/01 03:21:23;;;;;;;21.03;17.30;;;4.90;99.90;;;;;;4994114;28;20305;-80
2021/01/01 03:23:52;;;;;;;20.70;16.87;;;4.90;99.90;;;;;;4994192;28;20600;-80
2021/01/01 03:26:19;;;;;;;19.87;15.80;;;4.90;99.90;;;;;;4993516;28;20178;-81
2021/01/01 03:28:45;;;;;;;21.23;17.30;;;4.90;99.90;;;;;;4992391;28;20206;-80
2021/01/01 03:31:11;;;;;;;19.23;15.87;;;5.20;99.90;;;;;;4994099;28;20174;-80
2021/01/01 03:33:36;;;;;;;18.97;15.50;;;5.20;99.90;;;;;;4993551;28;20178;-81
2021/01/01 03:36:05;;;;;;;19.30;15.70;;;4.90;99.90;;;;;;4993989;28;20570;-81
2021/01/01 03:38:33;;;;;;;18.17;15.43;;;4.80;99.90;;;;;;4996907;28;20166;-81
2021/01/01 03:40:58;;;;;;;16.30;14.60;;;4.80;99.90;;;;;;4996890;28;20202;-80
2021/01/01 03:43:24;;;;;;;22.67;15.20;;;4.70;99.90;;;;;;4995700;28;20170;-81
2021/01/01 03:45:50;;;;;;;19.40;15.57;;;4.90;99.90;;;;;;4996846;28;20162;-80
2021/01/01 03:48:16;;;;;;;20.73;16.00;;;5.10;99.90;;;;;;4996820;28;20217;-81
2021/01/01 03:50:42;;;;;;;19.73;15.57;;;5.10;99.90;;;;;;4995493;28;20530;-81
2021/01/01 03:53:08;;;;;;;21.33;15.90;;;5.10;99.90;;;;;;4995464;28;20175;-81
2021/01/01 03:55:33;;;;;;;19.80;15.57;;;5.10;99.90;;;;;;4996630;28;20249;-81
2021/01/01 03:57:59;;;;;;;18.63;15.67;;;5.00;99.90;;;;;;4995317;28;20262;-81
2021/01/01 04:00:25;;;;;;;17.37;14.67;;;4.90;99.90;;;;;;4996131;28;20265;-81
2021/01/01 04:02:50;;;;;;;18.90;14.53;;;4.80;99.90;;;;;;4995393;28;20194;-81
2021/01/01 04:05:16;;;;;;;17.77;14.10;;;4.60;99.90;;;;;;4995185;28;20171;-81
2021/01/01 04:07:41;;;;;;;18.03;14.73;;;4.60;99.90;;;;;;4995287;28;20206;-81
2021/01/01 04:10:08;;;;;;;23.40;14.67;;;4.50;99.90;;;;;;4996366;28;20171;-81
2021/01/01 04:12:33;;;;;;;25.50;16.33;;;4.70;99.90;;;;;;4995058;28;20625;-82
2021/01/01 04:14:59;;;;;;;21.30;14.90;;;4.80;99.90;;;;;;4996384;28;20167;-81
2021/01/01 04:17:24;;;;;;;21.17;15.33;;;4.90;99.90;;;;;;4996217;28;20306;-80
2021/01/01 04:19:50;;;;;;;19.57;15.03;;;5.00;99.90;;;;;;4994958;28;20194;-81
2021/01/01 04:22:15;;;;;;;18.67;15.40;;;4.90;99.90;;;;;;4996141;28;20206;-81
2021/01/01 04:24:41;;;;;;;18.30;14.30;;;4.70;99.90;;;;;;4996097;28;20738;-81
2021/01/01 04:27:07;;;;;;;20.13;15.07;;;4.60;99.90;;;;;;4994887;28;20171;-81
2021/01/01 04:29:35;;;;;;;21.80;15.87;;;4.70;99.90;;;;;;4994808;28;20166;-81
2021/01/01 04:32:04;;;;;;;21.57;15.97;;;4.70;99.90;;;;;;4995883;28;20170;-81
2021/01/01 04:34:29;;;;;;;18.73;15.90;;;4.80;99.90;;;;;;4994737;28;20217;-81
2021/01/01 04:36:57;;;;;;;21.50;15.87;;;5.00;99.90;;;;;;4996230;28;20170;-81
2021/01/01 04:39:23;;;;;;;22.20;16.27;;;4.90;99.90;;;;;;4995796;28;20634;-81
2021/01/01 04:41:54;;;;;;;24.33;16.77;;;4.80;99.90;;;;;;4994499;28;20217;-81
2021/01/01 04:44:22;;;;;;;28.53;16.80;;;5.00;99.90;;;;;;4994475;28;20253;-81
2021/01/01 04:46:49;;;;;;;20.73;16.30;;;4.90;99.90;;;;;;4995291;28;20262;-80
2021/01/01 04:49:17;;;;;;;21.73;16.60;;;4.90;99.90;;;;;;4995700;28;20193;-80
2021/01/01 04:51:43;;;;;;;19.50;15.97;;;4.70;99.90;;;;;;4994345;28;20261;-80
2021/01/01 04:54:11;;;;;;;24.27;15.43;;;4.50;99.90;;;;;;4995672;28;20227;-80
2021/01/01 04:56:47;;;;;;;23.17;15.77;;;4.60;99.90;;;;;;4995569;28;20266;-80
2021/01/01 04:59:17;;;;;;;20.80;15.70;;;4.70;99.90;;;;;;4995486;28;20209;-80
2021/01/01 05:01:43;;;;;;;23.20;16.70;;;4.70;99.90;;;;;;4995129;28;20222;-80
2021/01/01 05:04:13;;;;;;;17.80;14.87;;;4.40;99.90;;;;;;4994089;28;20159;-80
2021/01/01 05:06:39;;;;;;;18.30;15.73;;;4.30;99.90;;;;;;4995285;28;20174;-81
2021/01/01 05:09:06;;;;;;;20.77;16.00;;;4.30;99.90;;;;;;4994069;28;20220;-80
2021/01/01 05:11:32;;;;;;;17.33;14.70;;;4.30;99.90;;;;;;4994020;28;20178;-80
2021/01/01 05:13:59;;;;;;;19.17;14.83;;;4.40;99.90;;;;;;4993959;28;20174;-80
2021/01/01 05:16:28;;;;;;;20.83;15.70;;;4.30;99.90;;;;;;4995215;28;20174;-80
2021/01/01 05:18:54;;;;;;;23.23;15.37;;;4.40;99.90;;;;;;4995187;28;20250;-80
2021/01/01 05:21:24;;;;;;;20.50;16.33;;;4.40;99.90;;;;;;4994982;28;20226;-81
2021/01/01 05:23:51;;;;;;;22.80;15.60;;;4.40;99.90;;;;;;4993798;28;20166;-81
2021/01/01 05:26:18;;;;;;;17.83;15.93;;;4.40;99.90;;;;;;4993927;28;20681;-81
2021/01/01 05:28:50;;;;;;;20.80;15.87;;;4.40;99.90;;;;;;4994971;28;20194;-81
2021/01/01 05:31:17;;;;;;;20.73;15.50;;;4.40;99.90;;;;;;4995106;28;20171;-81
2021/01/01 05:33:50;;;;;;;17.40;15.00;;;4.40;99.90;;;;;;4994833;28;20229;-80
2021/01/01 05:36:16;;;;;;;24.10;16.53;;;4.50;99.90;;;;;;4995197;28;20159;-80
2021/01/01 05:38:41;;;;;;;19.60;16.83;;;4.70;99.90;;;;;;4993530;28;20553;-80
2021/01/01 05:41:07;;;;;;;27.10;18.97;;;4.60;99.90;;;;;;4993378;28;20207;-80
2021/01/01 05:43:33;;;;;;;27.23;18.03;;;4.70;99.90;;;;;;4994692;28;20167;-80
2021/01/01 05:46:08;;;;;;;24.43;18.20;;;4.80;99.90;;;;;;4993296;28;20193;-81
2021/01/01 05:48:36;;;;;;;23.80;18.80;;;4.60;99.90;;;;;;4993354;28;20174;-80
2021/01/01 05:51:11;;;;;;;26.40;19.20;;;4.60;99.90;;;;;;4993261;28;20166;-80
2021/01/01 05:53:36;;;;;;;23.30;17.23;;;4.50;99.90;;;;;;4994631;28;20208;-81
2021/01/01 05:56:08;;;;;;;23.73;19.80;;;4.20;99.90;;;;;;4993874;28;20413;-80
2021/01/01 05:58:35;;;;;;;22.00;17.20;;;4.40;99.90;;;;;;4993916;28;20525;-81
2021/01/01 06:01:03;;;;;;;21.17;15.83;;;4.30;99.90;;;;;;4994361;28;20214;-80
2021/01/01 06:03:33;;;;;;;24.50;17.07;;;4.30;99.90;;;;;;4993086;28;20162;-80
2021/01/01 06:05:59;;;;;;;21.90;17.47;;;4.60;99.90;;;;;;4994429;28;20205;-80
2021/01/01 06:08:30;;;;;;;21.50;17.17;;;4.60;99.90;;;;;;4994299;28;20159;-80
2021/01/01 06:11:01;;;;;;;21.20;17.63;;;4.70;99.90;;;;;;4993053;28;20252;-81
2021/01/01 06:13:34;;;;;;;23.07;18.33;;;4.60;99.90;;;;;;4994185;28;20175;-81
2021/01/01 06:16:01;;;;;;;28.37;19.50;;;4.70;99.90;;;;;;4993043;28;20170;-80
2021/01/01 06:18:36;;;;;;;26.80;19.93;;;4.70;99.90;;;;;;4994271;28;20210;-80
2021/01/01 06:21:03;;;;;;;25.87;18.77;;;4.70;99.90;;;;;;4994099;28;20202;-80
2021/01/01 06:23:34;;;;;;;25.30;18.80;;;4.70;99.90;;;;;;4994218;28;20163;-80
2021/01/01 06:26:01;;;;;;;27.63;20.30;;;4.70;99.90;;;;;;4992864;28;20206;-82
2021/01/01 06:28:31;;;;;;;27.37;19.47;;;4.70;99.90;;;;;;4992878;28;20263;-81
2021/01/01 06:30:58;;;;;;;25.67;20.50;;;4.70;99.90;;;;;;4992812;28;20658;-81
2021/01/01 06:33:24;;;;;;;27.87;20.40;;;4.60;99.90;;;;;;4992824;28;20225;-81
2021/01/01 06:35:51;;;;;;;25.73;20.03;;;4.40;99.90;;;;;;4992840;28;20163;-81
2021/01/01 06:38:36;;;;;;;27.20;19.27;;;4.20;99.90;;;;;;4993953;28;20261;-81
2021/01/01 06:41:04;;;;;;;21.47;18.67;;;4.20;99.90;;;;;;4993940;28;20197;-81
2021/01/01 06:44:01;;;;;;;23.50;17.43;;;4.10;99.90;;;;;;4993893;28;20257;-80
2021/01/01 06:46:38;;;;;;;21.20;17.17;;;4.10;99.90;;;;;;4950406;28;20257;-81
2021/01/01 06:49:06;;;;;;;18.47;16.57;;;4.00;99.90;;;;;;4992711;28;20202;-81
2021/01/01 06:51:32;;;;;;;20.67;17.77;;;4.00;99.90;;;;;;4993865;28;20583;-80
2021/01/01 06:54:14;;;;;;;19.20;16.43;;;4.00;99.90;;;;;;4992719;28;20221;-81
2021/01/01 06:56:42;;;;;;;26.83;18.33;;;4.00;99.90;;;;;;4993768;28;20254;-81
2021/01/01 06:59:09;;;;;;;23.47;17.90;;;3.90;99.90;;;;;;4994218;28;20213;-81
2021/01/01 07:01:45;;;;;;;21.77;17.53;;;4.00;99.90;;;;;;4993580;28;20241;-81
2021/01/01 07:04:12;;;;;;;22.07;16.50;;;4.00;99.90;;;;;;4992501;28;20217;-81
2021/01/01 07:06:41;;;;;;;19.20;16.37;;;3.90;99.90;;;;;;4993796;28;20177;-81
2021/01/01 07:09:09;;;;;;;32.10;17.00;;;4.00;99.90;;;;;;4993658;28;20163;-81
2021/01/01 07:11:37;;;;;;;22.30;16.10;;;3.90;99.90;;;;;;4996650;28;20225;-81
2021/01/01 07:14:09;;;;;;;23.50;17.57;;;3.90;99.90;;;;;;4997498;28;20165;-81
2021/01/01 07:16:37;;;;;;;24.40;17.90;;;3.90;99.90;;;;;;4996171;28;20176;-81
2021/01/01 07:19:03;;;;;;;26.90;17.90;;;4.00;99.90;;;;;;4996075;28;20163;-80
2021/01/01 07:21:30;;;;;;;22.57;17.93;;;4.00;99.90;;;;;;4995935;28;20225;-80
2021/01/01 07:23:56;;;;;;;26.10;17.87;;;4.10;99.90;;;;;;4997856;28;20159;-81
2021/01/01 07:26:27;;;;;;;24.67;17.87;;;4.40;99.90;;;;;;4996007;28;20171;-80
2021/01/01 07:28:53;;;;;;;18.60;16.27;;;4.50;99.90;;;;;;4997718;28;20212;-80
2021/01/01 07:31:22;;;;;;;20.40;16.47;;;4.40;99.90;;;;;;4995860;28;20174;-81
2021/01/01 07:33:49;;;;;;;21.83;17.13;;;4.60;99.90;;;;;;4995755;28;20595;-81
2021/01/01 07:36:15;;;;;;;21.97;16.23;;;4.60;99.90;;;;;;4995917;28;20171;-81
2021/01/01 07:38:43;;;;;;;17.87;15.97;;;4.40;99.90;;;;;;4996971;28;20190;-80
2021/01/01 07:41:10;;;;;;;20.47;16.67;;;4.10;99.90;;;;;;4995597;28;20297;-81
2021/01/01 07:43:38;;;;;;;27.40;20.23;;;4.00;99.90;;;;;;4995676;28;20175;-80
2021/01/01 07:46:08;;;;;;;27.80;18.33;;;4.00;99.90;;;;;;4995563;28;20174;-81
2021/01/01 07:48:34;;;;;;;22.83;17.27;;;4.10;99.90;;;;;;4995615;28;20193;-81
2021/01/01 07:51:07;;;;;;;21.47;15.20;;;4.20;99.90;;;;;;4996799;28;20163;-82
2021/01/01 07:53:34;;;;;;;16.87;15.00;;;4.10;99.90;;;;;;4995516;28;20194;-80
2021/01/01 07:56:04;;;;;;;17.10;15.20;;;4.10;99.90;;;;;;4995502;28;20171;-80
2021/01/01 07:58:31;;;;;;;17.33;14.80;;;4.20;99.90;;;;;;4995528;28;20171;-81
2021/01/01 08:01:01;;;;;;;18.57;14.73;;;4.20;99.90;;;;;;4996288;28;20222;-80
2021/01/01 08:03:27;;;;;;;24.50;18.20;;;4.20;99.90;;;;;;4996589;28;20174;-80
2021/01/01 08:05:53;;;;;;;19.60;16.90;;;4.40;99.90;;;;;;4996460;28;20167;-79
2021/01/01 08:08:20;;;;;;;20.30;16.60;;;4.70;99.90;;;;;;4996443;28;20204;-81
2021/01/01 08:10:48;;;;;;;22.03;17.63;;;4.90;99.90;;;;;;4995136;28;20626;-81
2021/01/01 08:13:18;;;;;;;26.37;18.57;;;5.00;99.90;;;;;;4996414;28;20641;-80
2021/01/01 08:15:44;;;;;;;22.00;18.63;;;5.00;99.90;;;;;;4995169;28;20173;-80
2021/01/01 08:18:29;;;;;;;21.70;17.13;;;4.50;99.90;;;;;;4996187;28;20185;-81
2021/01/01 08:21:03;;;;;;;22.17;16.17;;;4.40;99.90;;;;;;4994897;28;20209;-80
2021/01/01 08:23:39;;;;;;;22.07;16.70;;;4.20;99.90;;;;;;4995165;28;20186;-81
2021/01/01 08:26:07;;;;;;;19.03;15.67;;;4.00;99.90;;;;;;4996120;28;20500;-81
2021/01/01 08:28:34;;;;;;;18.77;16.77;;;3.90;99.90;;;;;;4993971;28;20425;-80
2021/01/01 08:31:06;;;;;;;23.33;14.93;;;4.00;99.90;;;;;;4995939;28;20577;-80
2021/01/01 08:33:41;;;;;;;18.00;15.20;;;4.00;99.90;;;;;;4995906;28;20254;-80
2021/01/01 08:36:08;;;;;;;19.53;15.50;;;4.00;99.90;;;;;;4995859;28;20208;-81
2021/01/01 08:38:36;;;;;;;18.20;13.90;;;3.90;99.90;;;;;;4994579;28;20167;-80
2021/01/01 08:41:02;;;;;;;17.67;14.50;;;4.00;99.90;;;;;;4996376;28;20233;-80
2021/01/01 08:43:29;;;;;;;18.10;13.70;;;3.80;99.90;;;;;;4994550;28;20172;-80
2021/01/01 08:45:57;;;;;;;16.20;14.40;;;3.90;99.90;;;;;;4995731;28;20170;-81
2021/01/01 08:48:29;;;;;;;15.57;13.70;;;4.10;99.90;;;;;;4996143;28;20201;-80
2021/01/01 08:50:55;;;;;;;22.70;15.50;;;4.10;99.90;;;;;;4994373;28;20258;-80
2021/01/01 08:53:24;;;;;;;18.43;14.80;;;4.30;99.90;;;;;;4995595;28;20209;-80
2021/01/01 08:56:00;;;;;;;19.80;16.53;;;4.50;99.90;;;;;;4995450;28;20222;-80
2021/01/01 08:58:26;;;;;;;24.60;17.47;;;4.60;99.90;;;;;;4994327;28;20559;-80
2021/01/01 09:00:55;;;;;;;20.37;16.03;;;4.70;99.90;;;;;;4993838;28;20236;-80
2021/01/01 09:03:22;;;;;;;18.67;15.90;;;4.80;99.90;;;;;;4995482;28;20249;-81
2021/01/01 09:05:54;;;;;;;18.33;15.50;;;4.80;99.90;;;;;;4995304;28;20167;-80
2021/01/01 09:08:24;;;;;;;27.23;15.93;;;4.90;99.90;;;;;;4995287;28;20232;-80
2021/01/01 09:10:54;;;;;;;18.63;14.73;;;4.90;99.90;;;;;;4995893;28;20182;-80
2021/01/01 09:13:30;;;;;;;21.17;16.63;;;4.90;99.90;;;;;;4994968;28;20444;-81
2021/01/01 09:16:09;;;;;;;19.67;15.83;;;5.10;99.90;;;;;;4993931;28;20177;-80
2021/01/01 09:18:38;;;;;;;19.77;15.47;;;5.10;99.90;;;;;;4995123;28;20253;-80
2021/01/01 09:21:16;;;;;;;16.37;14.00;;;5.00;99.90;;;;;;4995086;28;20264;-80
2021/01/01 09:23:52;;;;;;;21.53;14.07;;;4.60;99.90;;;;;;4993717;28;20181;-80
2021/01/01 09:26:25;;;;;;;18.27;13.97;;;4.50;99.90;;;;;;4994953;28;20171;-80
2021/01/01 09:29:07;;;;;;;18.37;14.60;;;4.50;99.90;;;;;;4995587;28;20165;-80
2021/01/01 09:31:34;;;;;;;19.67;15.67;;;4.50;99.90;;;;;;4993787;28;20170;-80
2021/01/01 09:34:07;;;;;;;24.00;17.40;;;4.40;99.90;;;;;;4994829;28;20171;-80
2021/01/01 09:36:37;;;;;;;19.87;16.57;;;4.50;99.90;;;;;;4993511;28;20159;-80
2021/01/01 09:39:07;;;;;;;25.47;16.40;;;4.30;99.90;;;;;;4994773;28;20163;-80
2021/01/01 09:41:38;;;;;;;24.57;16.87;;;4.50;99.90;;;;;;4993447;28;20240;-80
2021/01/01 09:44:05;;;;;;;36.13;23.10;;;4.40;99.90;;;;;;4993487;28;20169;-80
2021/01/01 09:46:30;;;;;;;23.40;18.80;;;4.40;99.90;;;;;;4994709;28;20171;-80
2021/01/01 09:48:56;;;;;;;21.23;15.93;;;4.30;99.90;;;;;;4993270;28;20166;-80
2021/01/01 09:51:22;;;;;;;21.80;16.73;;;4.40;99.90;;;;;;4993395;28;20167;-80
2021/01/01 09:53:47;;;;;;;21.00;17.20;;;4.50;99.90;;;;;;4994577;28;20163;-80
2021/01/01 09:56:13;;;;;;;26.13;21.00;;;4.50;99.90;;;;;;4994406;28;20645;-80
2021/01/01 09:58:39;;;;;;;19.60;16.73;;;4.70;99.90;;;;;;4994413;28;20171;-80
2021/01/01 10:01:05;;;;;;;19.47;16.13;;;4.60;99.90;;;;;;4994188;28;20228;-80
2021/01/01 10:03:30;;;;;;;23.83;17.53;;;4.60;99.90;;;;;;4992761;28;20265;-80
2021/01/01 10:05:56;;;;;;;24.23;16.33;;;4.60;99.90;;;;;;4993124;28;20245;-80
2021/01/01 10:08:22;;;;;;;22.90;16.10;;;4.50;99.90;;;;;;4994256;28;20167;-80
2021/01/01 10:10:49;;;;;;;20.93;15.87;;;4.50;99.90;;;;;;4994200;28;20225;-80
2021/01/01 10:13:49;;;;;;;23.73;16.93;;;4.40;99.90;;;;;;4993039;28;20650;-80
2021/01/01 10:16:24;;;;;;;21.67;17.23;;;4.70;99.90;;;;;;4984452;28;20220;-80
2021/01/01 10:18:54;;;;;;;23.20;17.10;;;4.70;99.90;;;;;;4977310;28;20218;-80
2021/01/01 10:21:30;;;;;;;26.47;16.47;;;4.80;99.90;;;;;;4993667;28;20218;-80
2021/01/01 10:24:24;;;;;;;25.07;16.93;;;4.80;99.90;;;;;;4993701;28;20182;-80
2021/01/01 10:26:57;;;;;;;18.33;15.57;;;4.70;99.90;;;;;;4993506;28;20565;-80
2021/01/01 10:29:33;;;;;;;23.23;16.77;;;4.60;99.90;;;;;;4961367;28;20619;-80
2021/01/01 10:35:41;;;;;;;25.30;16.30;;;5.00;99.90;;;;;;4994627;28;20235;-80
2021/01/01 10:38:06;;;;;;;24.27;18.07;;;5.10;99.90;;;;;;4994446;28;20166;-80
2021/01/01 10:40:32;;;;;;;20.83;17.83;;;5.10;99.90;;;;;;4993919;28;20693;-80
2021/01/01 10:43:01;;;;;;;23.40;17.37;;;5.20;99.90;;;;;;4992691;28;20702;-80
2021/01/01 10:45:27;;;;;;;26.20;18.17;;;5.30;99.90;;;;;;4993799;28;20548;-80
2021/01/01 10:47:53;;;;;;;23.53;18.17;;;5.20;99.90;;;;;;4996664;28;20177;-80
2021/01/01 10:50:21;;;;;;;27.90;18.60;;;5.20;99.90;;;;;;4996404;28;20245;-80
2021/01/01 10:52:47;;;;;;;30.37;18.57;;;5.20;99.90;;;;;;4996739;28;20258;-81
2021/01/01 10:55:13;;;;;;;26.47;18.07;;;5.10;99.90;;;;;;4997813;28;20251;-80
2021/01/01 10:57:42;;;;;;;27.33;17.47;;;5.20;99.90;;;;;;4997961;28;20611;-80
2021/01/01 11:00:08;;;;;;;25.20;18.20;;;5.10;99.90;;;;;;4996071;28;20768;-80
2021/01/01 11:02:34;;;;;;;22.53;17.10;;;5.20;99.90;;;;;;4996165;28;20218;-80
2021/01/01 11:04:59;;;;;;;25.73;17.47;;;5.40;99.90;;;;;;4997549;28;20175;-80
2021/01/01 11:07:25;;;;;;;30.50;18.20;;;5.50;99.90;;;;;;4997514;28;20174;-80
2021/01/01 11:09:51;;;;;;;27.20;19.73;;;5.70;99.90;;;;;;4996586;28;20467;-80
2021/01/01 11:12:16;;;;;;;24.73;16.63;;;5.70;99.90;;;;;;4997448;28;20253;-80
2021/01/01 12:25:56;;;;;;;14.90;10.03;;;5.90;99.90;;;;;;4996495;28;20170;-80
2021/01/01 12:28:26;;;;;;;15.33;10.53;;;6.10;99.90;;;;;;4994535;28;20177;-81
2021/01/01 12:30:55;;;;;;;15.00;9.97;;;6.10;99.90;;;;;;4994561;28;20202;-80
2021/01/01 12:33:21;;;;;;;16.33;11.20;;;6.00;99.90;;;;;;4994678;28;20159;-81
2021/01/01 12:35:47;;;;;;;20.60;10.43;;;5.90;99.90;;;;;;4995978;28;20170;-80
2021/01/01 12:38:13;;;;;;;16.07;11.77;;;6.10;99.90;;;;;;4994516;28;20163;-80
2021/01/01 12:40:38;;;;;;;22.17;11.77;;;6.20;99.90;;;;;;4995822;28;20190;-80
2021/01/01 12:43:04;;;;;;;19.23;10.87;;;6.30;99.90;;;;;;4995687;28;20235;-80
2021/01/01 12:45:30;;;;;;;13.83;10.80;;;6.30;99.90;;;;;;4995446;28;20195;-80
2021/01/01 12:47:56;;;;;;;14.93;10.87;;;6.50;99.90;;;;;;4996076;28;20658;-80
2021/01/01 12:50:25;;;;;;;18.03;10.93;;;6.60;99.90;;;;;;4994431;28;20221;-81
2021/01/01 12:53:00;;;;;;;16.73;10.57;;;6.60;99.90;;;;;;4994160;28;20302;-80
2021/01/01 12:55:26;;;;;;;17.30;11.40;;;6.80;99.90;;;;;;4996104;28;20506;-81
2021/01/01 12:57:55;;;;;;;16.63;10.20;;;6.50;99.90;;;;;;4996032;28;20167;-80
2021/01/01 13:00:23;;;;;;;14.83;9.97;;;6.50;99.90;;;;;;4995436;28;20195;-81
2021/01/01 13:02:58;;;;;;;17.07;10.83;;;6.60;99.90;;;;;;4995099;28;20288;-81
2021/01/01 13:05:24;;;;;;;15.47;11.43;;;6.60;99.90;;;;;;4995461;28;20619;-81
2021/01/01 13:07:49;;;;;;;18.60;11.03;;;6.60;99.90;;;;;;4993595;28;20203;-81
2021/01/01 13:10:15;;;;;;;16.97;10.47;;;6.70;99.90;;;;;;4993926;28;20167;-82
2021/01/01 13:12:40;;;;;;;18.37;11.37;;;6.80;99.90;;;;;;4995245;28;20163;-81
2021/01/01 13:15:10;;;;;;;15.97;10.53;;;6.70;99.90;;;;;;4995636;28;20175;-81
2021/01/01 13:17:35;;;;;;;14.27;10.20;;;6.70;99.90;;;;;;4995135;28;20167;-81
2021/01/01 13:20:03;;;;;;;11.77;10.10;;;6.70;99.90;;;;;;4995064;28;20178;-81
2021/01/01 13:22:31;;;;;;;12.60;9.37;;;6.60;99.90;;;;;;4993506;28;20202;-81
2021/01/01 13:24:57;;;;;;;12.70;9.10;;;6.80;99.90;;;;;;4993659;28;20171;-81
2021/01/01 13:27:25;;;;;;;9.20;7.63;;;6.80;99.90;;;;;;4993538;28;20166;-81
2021/01/01 13:29:52;;;;;;;11.73;8.70;;;6.80;99.90;;;;;;4995427;28;20481;-81
2021/01/01 13:32:18;;;;;;;11.43;8.10;;;6.80;99.90;;;;;;4995079;28;20611;-80
2021/01/01 13:34:44;;;;;;;12.10;8.67;;;6.80;99.90;;;;;;4994753;28;20155;-81
2021/01/01 13:37:10;;;;;;;9.03;7.50;;;6.80;99.90;;;;;;4995030;28;20254;-88
2021/01/01 13:39:36;;;;;;;16.57;8.70;;;7.10;99.90;;;;;;4994205;28;20194;-87
2021/01/01 13:42:02;;;;;;;11.67;9.10;;;7.20;99.90;;;;;;4994140;28;20203;-87
2021/01/01 13:44:27;;;;;;;10.67;8.00;;;7.20;99.90;;;;;;4994734;28;20254;-87
2021/01/01 13:46:53;;;;;;;12.80;8.57;;;7.20;99.90;;;;;;4995144;28;20167;-88
2021/01/01 13:49:19;;;;;;;12.20;8.53;;;7.20;99.90;;;;;;4994054;28;20241;-88
2021/01/01 13:51:47;;;;;;;12.50;8.67;;;7.30;99.90;;;;;;4994344;28;20175;-89
2021/01/01 13:54:13;;;;;;;9.80;8.80;;;7.40;99.90;;;;;;4993859;28;20181;-88
2021/01/01 13:56:38;;;;;;;12.20;8.53;;;7.40;99.90;;;;;;4993980;28;20171;-87